Meteógrafos Informações Meteorológicas em tempo real
Aeroporto de Porto Seguro
15-12-2019 22:56

Temperatura atual: 25 graus 77 F    Umidade relativa: 83 %
Velocidade do vento: 07 nós 12 Km/h    Direção: 120 graus ESE
Ajuste do altímetro ..: 1017 HPA
Visibilidade: Ótima    Tempo presente: Parcialmente Nublado

Observação
Céu nublado a 2000 Pés.
Data Hora BRTTempo°CUmidadePressãoVentoVisib.
15/12 - 22:56   Parcialmente Nublado 25° 83% 1017 Este-sudeste/12 km/h OK
15/12 - 21:56   Chovendo na vizinhança 23° 94% 1017 /3 km/h 8000
15/12 - 20:56   Parcialmente Nublado 26° 74% 1016 Leste/12 km/h OK
15/12 - 19:56   Parcialmente Nublado 26° 74% 1016 Leste/12 km/h OK
15/12 - 18:56   Chovendo na vizinhança 26° 83% 1016 Sul-sudeste/7 km/h 9999
15/12 - 17:55   Parcialmente Nublado 26° 83% 1016 /9 km/h OK
15/12 - 16:56   Chovendo na vizinhança 27° 78% 1015 Sul-sudeste/10 km/h 9999
15/12 - 15:56   Poucas nuvens esparsas 28° 70% 1016 Sul-sudeste/12 km/h 9999
15/12 - 14:56   Poucas nuvens esparsas 28° 70% 1016 Sul-sudeste/12 km/h 9999
15/12 - 13:56   Chovendo na vizinhança ND° ND% ND Sudeste/10 km/h 9999
15/12 - 12:56   Poucas nuvens esparsas 29° 62% 1017 Sudeste/14 km/h OK
15/12 - 11:56   Poucas nuvens esparsas 29° 62% 1017 Este-sudeste/16 km/h OK
15/12 - 10:56   Nuvens esparsas 28° 61% 1018 Sudeste/7 km/h OK
15/12 - 09:56   Nuvens esparsas 29° 51% 1018 Leste/19 km/h OK
15/12 - 08:56   Poucas nuvens esparsas 27° 74% 1018 Este-sudeste/21 km/h OK
15/12 - 07:56   Nuvens esparsas 27° 74% 1017 Este-sudeste/16 km/h OK
15/12 - 06:56   Nuvens esparsas 27° 74% 1017 Este-sudeste/16 km/h OK
15/12 - 05:56   Parcialmente Nublado 24° 88% 1017 Sul-sudoeste/5 km/h 9999
15/12 - 04:56   Chovendo na vizinhança 23° 88% 1016 /3 km/h 8000
15/12 - 03:56   Poucas nuvens esparsas 24° 83% 1016 Norte/7 km/h OK
15/12 - 02:56   Chovendo na vizinhança 25° 83% 1016 Este-nordeste/19 km/h 8000
15/12 - 01:56   Chovendo na vizinhança 26° 74% 1016 Leste/12 km/h OK
15/12 - 00:56   Poucas nuvens esparsas 26° 74% 1016 Leste/14 km/h OK
14/12 - 23:56   Poucas nuvens esparsas 26° 74% 1017 Leste/16 km/h OK

Termo de Uso  |   Links Úteis  |   Imprensa  |  Anuncie  |  Fale Conosco  |  Versão Celular  |   Política de Privacidade

Apolo11.com - Todos os direitos reservados - 2000 - 2019

"Existem velas que iluminam tudo, menos o próprio candelabro" - Hebbel